sensor_id;sensor_type;location;lat;lon;timestamp;P1;durP1;ratioP1;P2;durP2;ratioP2
37877;SDS011;23715;53.652;8.516;2022-08-01T00:03:06;22.07;;;20.72;;
37877;SDS011;23715;53.652;8.516;2022-08-01T00:13:06;21.48;;;20.37;;
37877;SDS011;23715;53.652;8.516;2022-08-01T00:18:06;21.12;;;19.85;;
37877;SDS011;23715;53.652;8.516;2022-08-01T00:23:07;21.97;;;20.67;;
37877;SDS011;23715;53.652;8.516;2022-08-01T00:33:07;22.50;;;21.30;;
37877;SDS011;23715;53.652;8.516;2022-08-01T00:38:07;23.32;;;21.52;;
37877;SDS011;23715;53.652;8.516;2022-08-01T00:43:09;22.60;;;21.27;;
37877;SDS011;23715;53.652;8.516;2022-08-01T00:48:09;21.73;;;20.25;;
37877;SDS011;23715;53.652;8.516;2022-08-01T00:53:10;22.50;;;20.97;;
37877;SDS011;23715;53.652;8.516;2022-08-01T00:58:10;22.83;;;21.33;;
37877;SDS011;23715;53.652;8.516;2022-08-01T01:03:11;21.50;;;20.10;;
37877;SDS011;23715;53.652;8.516;2022-08-01T01:08:19;22.17;;;20.97;;
37877;SDS011;23715;53.652;8.516;2022-08-01T01:19:05;22.65;;;21.45;;
37877;SDS011;23715;53.652;8.516;2022-08-01T01:23:40;23.67;;;22.10;;
37877;SDS011;23715;53.652;8.516;2022-08-01T01:34:15;22.37;;;21.17;;
37877;SDS011;23715;53.652;8.516;2022-08-01T01:39:18;23.85;;;22.17;;
37877;SDS011;23715;53.652;8.516;2022-08-01T01:44:22;23.12;;;21.70;;
37877;SDS011;23715;53.652;8.516;2022-08-01T01:49:28;22.42;;;21.23;;
37877;SDS011;23715;53.652;8.516;2022-08-01T01:54:32;22.87;;;21.55;;
37877;SDS011;23715;53.652;8.516;2022-08-01T01:59:30;22.67;;;21.27;;
37877;SDS011;23715;53.652;8.516;2022-08-01T02:04:33;22.57;;;21.17;;
37877;SDS011;23715;53.652;8.516;2022-08-01T02:09:35;22.62;;;21.23;;
37877;SDS011;23715;53.652;8.516;2022-08-01T02:14:39;22.80;;;21.30;;
37877;SDS011;23715;53.652;8.516;2022-08-01T02:19:40;22.80;;;21.50;;
37877;SDS011;23715;53.652;8.516;2022-08-01T02:24:42;24.67;;;23.18;;
37877;SDS011;23715;53.652;8.516;2022-08-01T02:29:53;24.50;;;23.00;;
37877;SDS011;23715;53.652;8.516;2022-08-01T02:35:05;23.10;;;21.57;;
37877;SDS011;23715;53.652;8.516;2022-08-01T02:40:10;23.38;;;21.87;;
37877;SDS011;23715;53.652;8.516;2022-08-01T02:45:12;24.67;;;23.00;;
37877;SDS011;23715;53.652;8.516;2022-08-01T02:50:14;23.65;;;22.20;;
37877;SDS011;23715;53.652;8.516;2022-08-01T02:55:16;23.67;;;22.13;;
37877;SDS011;23715;53.652;8.516;2022-08-01T03:00:18;24.27;;;22.67;;
37877;SDS011;23715;53.652;8.516;2022-08-01T03:05:19;24.20;;;22.30;;
37877;SDS011;23715;53.652;8.516;2022-08-01T03:15:19;26.70;;;24.60;;
37877;SDS011;23715;53.652;8.516;2022-08-01T03:20:22;25.23;;;22.90;;
37877;SDS011;23715;53.652;8.516;2022-08-01T03:25:25;26.03;;;23.43;;
37877;SDS011;23715;53.652;8.516;2022-08-01T03:30:27;24.72;;;22.67;;
37877;SDS011;23715;53.652;8.516;2022-08-01T03:35:30;26.82;;;23.52;;
37877;SDS011;23715;53.652;8.516;2022-08-01T03:40:59;27.90;;;25.12;;
37877;SDS011;23715;53.652;8.516;2022-08-01T03:46:06;26.68;;;23.92;;
37877;SDS011;23715;53.652;8.516;2022-08-01T03:51:09;26.13;;;23.30;;
37877;SDS011;23715;53.652;8.516;2022-08-01T03:56:11;27.60;;;24.75;;
37877;SDS011;23715;53.652;8.516;2022-08-01T04:01:14;27.00;;;25.17;;
37877;SDS011;23715;53.652;8.516;2022-08-01T04:06:16;25.88;;;23.92;;
37877;SDS011;23715;53.652;8.516;2022-08-01T04:11:16;26.70;;;24.07;;
37877;SDS011;23715;53.652;8.516;2022-08-01T04:16:17;25.75;;;23.18;;
37877;SDS011;23715;53.652;8.516;2022-08-01T04:21:18;25.02;;;22.65;;
37877;SDS011;23715;53.652;8.516;2022-08-01T04:26:20;30.40;;;23.67;;
37877;SDS011;23715;53.652;8.516;2022-08-01T04:31:22;25.15;;;22.90;;
37877;SDS011;23715;53.652;8.516;2022-08-01T04:36:25;29.48;;;22.40;;
37877;SDS011;23715;53.652;8.516;2022-08-01T04:41:27;25.12;;;22.70;;
37877;SDS011;23715;53.652;8.516;2022-08-01T04:46:29;27.42;;;24.87;;
37877;SDS011;23715;53.652;8.516;2022-08-01T04:51:30;27.95;;;23.57;;
37877;SDS011;23715;53.652;8.516;2022-08-01T04:56:31;33.38;;;24.20;;
37877;SDS011;23715;53.652;8.516;2022-08-01T05:01:34;25.35;;;22.82;;
37877;SDS011;23715;53.652;8.516;2022-08-01T05:06:35;29.63;;;23.17;;
37877;SDS011;23715;53.652;8.516;2022-08-01T05:11:36;25.48;;;22.73;;
37877;SDS011;23715;53.652;8.516;2022-08-01T05:16:36;24.80;;;21.93;;
37877;SDS011;23715;53.652;8.516;2022-08-01T05:26:38;30.92;;;23.00;;
37877;SDS011;23715;53.652;8.516;2022-08-01T05:31:39;30.40;;;22.45;;
37877;SDS011;23715;53.652;8.516;2022-08-01T05:36:40;28.15;;;22.75;;
37877;SDS011;23715;53.652;8.516;2022-08-01T05:46:40;25.00;;;21.70;;
37877;SDS011;23715;53.652;8.516;2022-08-01T05:51:40;23.35;;;20.55;;
37877;SDS011;23715;53.652;8.516;2022-08-01T05:56:41;24.55;;;20.50;;
37877;SDS011;23715;53.652;8.516;2022-08-01T06:01:41;24.50;;;19.35;;
37877;SDS011;23715;53.652;8.516;2022-08-01T06:06:42;26.47;;;20.23;;
37877;SDS011;23715;53.652;8.516;2022-08-01T06:11:42;26.67;;;20.63;;
37877;SDS011;23715;53.652;8.516;2022-08-01T06:16:43;24.50;;;21.97;;
37877;SDS011;23715;53.652;8.516;2022-08-01T06:21:43;27.67;;;20.20;;
37877;SDS011;23715;53.652;8.516;2022-08-01T06:31:43;21.85;;;19.62;;
37877;SDS011;23715;53.652;8.516;2022-08-01T06:36:45;25.60;;;21.97;;
37877;SDS011;23715;53.652;8.516;2022-08-01T06:41:46;26.75;;;21.37;;
37877;SDS011;23715;53.652;8.516;2022-08-01T06:46:46;23.83;;;20.08;;
37877;SDS011;23715;53.652;8.516;2022-08-01T06:51:47;31.73;;;21.77;;
37877;SDS011;23715;53.652;8.516;2022-08-01T06:56:47;22.58;;;20.05;;
37877;SDS011;23715;53.652;8.516;2022-08-01T07:01:48;29.60;;;21.37;;
37877;SDS011;23715;53.652;8.516;2022-08-01T07:06:48;29.32;;;20.65;;
37877;SDS011;23715;53.652;8.516;2022-08-01T07:11:49;26.68;;;20.52;;
37877;SDS011;23715;53.652;8.516;2022-08-01T07:16:51;27.82;;;19.32;;
37877;SDS011;23715;53.652;8.516;2022-08-01T07:21:51;26.40;;;21.07;;
37877;SDS011;23715;53.652;8.516;2022-08-01T07:26:52;29.50;;;19.62;;
37877;SDS011;23715;53.652;8.516;2022-08-01T07:31:54;25.57;;;20.82;;
37877;SDS011;23715;53.652;8.516;2022-08-01T07:36:56;23.87;;;19.98;;
37877;SDS011;23715;53.652;8.516;2022-08-01T07:41:56;21.27;;;18.57;;
37877;SDS011;23715;53.652;8.516;2022-08-01T07:46:57;21.57;;;19.45;;
37877;SDS011;23715;53.652;8.516;2022-08-01T07:51:57;23.07;;;18.85;;
37877;SDS011;23715;53.652;8.516;2022-08-01T07:56:58;24.85;;;19.62;;
37877;SDS011;23715;53.652;8.516;2022-08-01T08:01:58;23.77;;;19.37;;
37877;SDS011;23715;53.652;8.516;2022-08-01T08:06:59;25.70;;;20.15;;
37877;SDS011;23715;53.652;8.516;2022-08-01T08:11:59;24.00;;;21.43;;
37877;SDS011;23715;53.652;8.516;2022-08-01T08:17:00;29.95;;;20.95;;
37877;SDS011;23715;53.652;8.516;2022-08-01T08:22:00;24.32;;;21.12;;
37877;SDS011;23715;53.652;8.516;2022-08-01T08:27:01;25.52;;;22.85;;
37877;SDS011;23715;53.652;8.516;2022-08-01T08:32:03;26.33;;;23.55;;
37877;SDS011;23715;53.652;8.516;2022-08-01T08:37:04;24.07;;;22.02;;
37877;SDS011;23715;53.652;8.516;2022-08-01T08:42:06;23.73;;;21.48;;
37877;SDS011;23715;53.652;8.516;2022-08-01T08:47:07;22.62;;;20.12;;
37877;SDS011;23715;53.652;8.516;2022-08-01T08:52:09;21.55;;;18.95;;
37877;SDS011;23715;53.652;8.516;2022-08-01T08:57:10;21.17;;;18.90;;
37877;SDS011;23715;53.652;8.516;2022-08-01T09:02:13;22.17;;;19.87;;
37877;SDS011;23715;53.652;8.516;2022-08-01T09:07:14;21.02;;;16.87;;
37877;SDS011;23715;53.652;8.516;2022-08-01T09:12:18;22.70;;;17.05;;
37877;SDS011;23715;53.652;8.516;2022-08-01T09:17:22;21.75;;;16.07;;
37877;SDS011;23715;53.652;8.516;2022-08-01T09:22:23;17.48;;;15.30;;
37877;SDS011;23715;53.652;8.516;2022-08-01T09:27:24;16.65;;;13.90;;
37877;SDS011;23715;53.652;8.516;2022-08-01T09:32:24;15.40;;;13.00;;
37877;SDS011;23715;53.652;8.516;2022-08-01T09:42:31;17.35;;;14.85;;
37877;SDS011;23715;53.652;8.516;2022-08-01T09:47:41;18.67;;;13.30;;
37877;SDS011;23715;53.652;8.516;2022-08-01T09:52:40;17.52;;;12.43;;
37877;SDS011;23715;53.652;8.516;2022-08-01T09:57:40;19.57;;;12.82;;
37877;SDS011;23715;53.652;8.516;2022-08-01T10:02:44;18.50;;;13.03;;
37877;SDS011;23715;53.652;8.516;2022-08-01T10:08:07;15.98;;;12.73;;
37877;SDS011;23715;53.652;8.516;2022-08-01T10:13:01;19.42;;;12.10;;
37877;SDS011;23715;53.652;8.516;2022-08-01T10:18:09;12.78;;;11.38;;
37877;SDS011;23715;53.652;8.516;2022-08-01T10:23:06;13.70;;;11.17;;
37877;SDS011;23715;53.652;8.516;2022-08-01T10:28:10;16.27;;;11.78;;
37877;SDS011;23715;53.652;8.516;2022-08-01T10:33:10;15.70;;;10.93;;
37877;SDS011;23715;53.652;8.516;2022-08-01T10:38:12;16.97;;;11.57;;
37877;SDS011;23715;53.652;8.516;2022-08-01T10:43:14;15.32;;;11.30;;
37877;SDS011;23715;53.652;8.516;2022-08-01T10:48:22;13.58;;;10.13;;
37877;SDS011;23715;53.652;8.516;2022-08-01T10:53:20;18.55;;;13.18;;
37877;SDS011;23715;53.652;8.516;2022-08-01T10:58:23;14.40;;;12.28;;
37877;SDS011;23715;53.652;8.516;2022-08-01T11:03:32;15.98;;;11.00;;
37877;SDS011;23715;53.652;8.516;2022-08-01T11:08:36;13.38;;;11.40;;
37877;SDS011;23715;53.652;8.516;2022-08-01T11:18:59;13.27;;;11.40;;
37877;SDS011;23715;53.652;8.516;2022-08-01T11:23:59;17.25;;;12.00;;
37877;SDS011;23715;53.652;8.516;2022-08-01T11:29:13;14.13;;;10.10;;
37877;SDS011;23715;53.652;8.516;2022-08-01T11:34:15;12.33;;;10.23;;
37877;SDS011;23715;53.652;8.516;2022-08-01T11:39:16;12.00;;;9.75;;
37877;SDS011;23715;53.652;8.516;2022-08-01T11:44:18;16.93;;;10.30;;
37877;SDS011;23715;53.652;8.516;2022-08-01T11:49:25;14.55;;;10.10;;
37877;SDS011;23715;53.652;8.516;2022-08-01T11:54:32;19.40;;;10.10;;
37877;SDS011;23715;53.652;8.516;2022-08-01T11:59:42;16.87;;;11.40;;
37877;SDS011;23715;53.652;8.516;2022-08-01T12:04:55;14.07;;;10.82;;
37877;SDS011;23715;53.652;8.516;2022-08-01T12:10:02;14.58;;;11.45;;
37877;SDS011;23715;53.652;8.516;2022-08-01T12:15:15;13.33;;;10.90;;
37877;SDS011;23715;53.652;8.516;2022-08-01T12:20:19;22.65;;;11.33;;
37877;SDS011;23715;53.652;8.516;2022-08-01T12:25:21;16.25;;;11.75;;
37877;SDS011;23715;53.652;8.516;2022-08-01T12:30:22;15.05;;;10.65;;
37877;SDS011;23715;53.652;8.516;2022-08-01T12:35:24;11.53;;;10.43;;
37877;SDS011;23715;53.652;8.516;2022-08-01T12:40:26;14.87;;;10.70;;
37877;SDS011;23715;53.652;8.516;2022-08-01T12:45:30;12.25;;;10.58;;
37877;SDS011;23715;53.652;8.516;2022-08-01T12:50:31;15.48;;;10.90;;
37877;SDS011;23715;53.652;8.516;2022-08-01T12:55:32;12.93;;;11.30;;
37877;SDS011;23715;53.652;8.516;2022-08-01T13:00:38;15.80;;;11.10;;
37877;SDS011;23715;53.652;8.516;2022-08-01T13:10:50;14.95;;;11.55;;
37877;SDS011;23715;53.652;8.516;2022-08-01T13:15:52;13.10;;;10.97;;
37877;SDS011;23715;53.652;8.516;2022-08-01T13:21:20;13.03;;;11.10;;
37877;SDS011;23715;53.652;8.516;2022-08-01T13:26:39;15.88;;;13.30;;
37877;SDS011;23715;53.652;8.516;2022-08-01T13:31:40;19.42;;;12.40;;
37877;SDS011;23715;53.652;8.516;2022-08-01T13:36:41;15.90;;;11.48;;
37877;SDS011;23715;53.652;8.516;2022-08-01T13:46:42;14.23;;;12.50;;
37877;SDS011;23715;53.652;8.516;2022-08-01T13:51:44;15.35;;;11.80;;
37877;SDS011;23715;53.652;8.516;2022-08-01T14:01:44;12.98;;;11.68;;
37877;SDS011;23715;53.652;8.516;2022-08-01T14:11:45;12.10;;;10.95;;
37877;SDS011;23715;53.652;8.516;2022-08-01T14:16:45;12.75;;;11.30;;
37877;SDS011;23715;53.652;8.516;2022-08-01T14:21:46;17.77;;;11.73;;
37877;SDS011;23715;53.652;8.516;2022-08-01T14:26:46;12.28;;;11.18;;
37877;SDS011;23715;53.652;8.516;2022-08-01T14:31:47;15.93;;;11.57;;
37877;SDS011;23715;53.652;8.516;2022-08-01T14:36:47;15.20;;;12.37;;
37877;SDS011;23715;53.652;8.516;2022-08-01T14:41:47;12.25;;;11.05;;
37877;SDS011;23715;53.652;8.516;2022-08-01T14:46:48;14.50;;;11.45;;
37877;SDS011;23715;53.652;8.516;2022-08-01T14:51:48;14.58;;;11.45;;
37877;SDS011;23715;53.652;8.516;2022-08-01T14:56:49;14.20;;;11.65;;
37877;SDS011;23715;53.652;8.516;2022-08-01T15:01:51;13.50;;;12.13;;
37877;SDS011;23715;53.652;8.516;2022-08-01T15:06:51;18.35;;;11.95;;
37877;SDS011;23715;53.652;8.516;2022-08-01T15:11:52;12.90;;;11.03;;
37877;SDS011;23715;53.652;8.516;2022-08-01T15:16:52;14.68;;;10.63;;
37877;SDS011;23715;53.652;8.516;2022-08-01T15:26:53;19.30;;;11.28;;
37877;SDS011;23715;53.652;8.516;2022-08-01T15:31:53;19.23;;;11.73;;
37877;SDS011;23715;53.652;8.516;2022-08-01T15:36:54;15.10;;;11.08;;
37877;SDS011;23715;53.652;8.516;2022-08-01T15:41:57;14.00;;;10.90;;
37877;SDS011;23715;53.652;8.516;2022-08-01T15:46:58;13.93;;;10.90;;
37877;SDS011;23715;53.652;8.516;2022-08-01T15:51:58;12.73;;;11.53;;
37877;SDS011;23715;53.652;8.516;2022-08-01T15:56:59;13.18;;;11.88;;
37877;SDS011;23715;53.652;8.516;2022-08-01T16:01:59;16.45;;;11.60;;
37877;SDS011;23715;53.652;8.516;2022-08-01T16:11:59;12.63;;;10.72;;
37877;SDS011;23715;53.652;8.516;2022-08-01T16:17:00;10.60;;;8.68;;
37877;SDS011;23715;53.652;8.516;2022-08-01T16:22:00;11.63;;;10.33;;
37877;SDS011;23715;53.652;8.516;2022-08-01T16:27:01;12.23;;;11.08;;
37877;SDS011;23715;53.652;8.516;2022-08-01T16:37:01;15.93;;;10.95;;
37877;SDS011;23715;53.652;8.516;2022-08-01T16:42:01;13.08;;;11.08;;
37877;SDS011;23715;53.652;8.516;2022-08-01T16:47:02;11.85;;;10.28;;
37877;SDS011;23715;53.652;8.516;2022-08-01T16:52:03;14.93;;;12.35;;
37877;SDS011;23715;53.652;8.516;2022-08-01T16:57:04;18.55;;;11.35;;
37877;SDS011;23715;53.652;8.516;2022-08-01T17:07:04;21.97;;;11.08;;
37877;SDS011;23715;53.652;8.516;2022-08-01T17:12:05;12.40;;;11.10;;
37877;SDS011;23715;53.652;8.516;2022-08-01T17:17:05;10.53;;;9.18;;
37877;SDS011;23715;53.652;8.516;2022-08-01T17:27:06;11.14;;;9.88;;
37877;SDS011;23715;53.652;8.516;2022-08-01T17:32:07;12.05;;;10.80;;
37877;SDS011;23715;53.652;8.516;2022-08-01T17:37:07;16.15;;;10.40;;
37877;SDS011;23715;53.652;8.516;2022-08-01T17:42:10;14.90;;;10.18;;
37877;SDS011;23715;53.652;8.516;2022-08-01T17:47:10;10.70;;;9.70;;
37877;SDS011;23715;53.652;8.516;2022-08-01T17:52:11;12.58;;;10.45;;
37877;SDS011;23715;53.652;8.516;2022-08-01T17:57:12;12.57;;;10.97;;
37877;SDS011;23715;53.652;8.516;2022-08-01T18:02:12;12.35;;;10.65;;
37877;SDS011;23715;53.652;8.516;2022-08-01T18:07:12;11.30;;;10.15;;
37877;SDS011;23715;53.652;8.516;2022-08-01T18:12:13;12.53;;;10.53;;
37877;SDS011;23715;53.652;8.516;2022-08-01T18:17:15;16.82;;;10.95;;
37877;SDS011;23715;53.652;8.516;2022-08-01T18:22:15;11.05;;;10.00;;
37877;SDS011;23715;53.652;8.516;2022-08-01T18:32:15;10.90;;;9.90;;
37877;SDS011;23715;53.652;8.516;2022-08-01T18:37:16;13.65;;;10.63;;
37877;SDS011;23715;53.652;8.516;2022-08-01T18:42:16;12.37;;;10.07;;
37877;SDS011;23715;53.652;8.516;2022-08-01T18:47:17;11.65;;;10.43;;
37877;SDS011;23715;53.652;8.516;2022-08-01T18:52:17;11.80;;;10.53;;
37877;SDS011;23715;53.652;8.516;2022-08-01T18:57:18;12.20;;;10.40;;
37877;SDS011;23715;53.652;8.516;2022-08-01T19:02:19;12.60;;;10.03;;
37877;SDS011;23715;53.652;8.516;2022-08-01T19:07:20;13.98;;;10.48;;
37877;SDS011;23715;53.652;8.516;2022-08-01T19:12:20;16.77;;;10.40;;
37877;SDS011;23715;53.652;8.516;2022-08-01T19:17:21;14.65;;;10.88;;
37877;SDS011;23715;53.652;8.516;2022-08-01T19:22:21;14.57;;;10.17;;
37877;SDS011;23715;53.652;8.516;2022-08-01T19:27:22;14.85;;;11.00;;
37877;SDS011;23715;53.652;8.516;2022-08-01T19:32:24;13.15;;;9.85;;
37877;SDS011;23715;53.652;8.516;2022-08-01T19:37:29;11.33;;;9.75;;
37877;SDS011;23715;53.652;8.516;2022-08-01T19:42:30;10.60;;;9.65;;
37877;SDS011;23715;53.652;8.516;2022-08-01T19:47:31;11.95;;;10.28;;
37877;SDS011;23715;53.652;8.516;2022-08-01T19:52:32;13.67;;;9.87;;
37877;SDS011;23715;53.652;8.516;2022-08-01T19:57:34;11.93;;;8.13;;
37877;SDS011;23715;53.652;8.516;2022-08-01T20:02:37;11.05;;;8.18;;
37877;SDS011;23715;53.652;8.516;2022-08-01T20:07:40;9.65;;;8.35;;
37877;SDS011;23715;53.652;8.516;2022-08-01T20:12:41;12.73;;;9.23;;
37877;SDS011;23715;53.652;8.516;2022-08-01T20:17:42;10.00;;;8.83;;
37877;SDS011;23715;53.652;8.516;2022-08-01T20:22:43;10.53;;;8.80;;
37877;SDS011;23715;53.652;8.516;2022-08-01T20:27:45;9.75;;;7.85;;
37877;SDS011;23715;53.652;8.516;2022-08-01T20:32:46;8.95;;;8.03;;
37877;SDS011;23715;53.652;8.516;2022-08-01T20:37:47;9.33;;;8.30;;
37877;SDS011;23715;53.652;8.516;2022-08-01T20:42:47;8.95;;;8.03;;
37877;SDS011;23715;53.652;8.516;2022-08-01T20:47:49;9.18;;;7.25;;
37877;SDS011;23715;53.652;8.516;2022-08-01T20:52:51;13.38;;;8.28;;
37877;SDS011;23715;53.652;8.516;2022-08-01T20:57:55;10.50;;;8.03;;
37877;SDS011;23715;53.652;8.516;2022-08-01T21:03:04;12.45;;;6.72;;
37877;SDS011;23715;53.652;8.516;2022-08-01T21:08:21;7.40;;;6.47;;
37877;SDS011;23715;53.652;8.516;2022-08-01T21:13:26;11.43;;;7.70;;
37877;SDS011;23715;53.652;8.516;2022-08-01T21:18:37;12.98;;;6.97;;
37877;SDS011;23715;53.652;8.516;2022-08-01T21:23:42;10.60;;;6.97;;
37877;SDS011;23715;53.652;8.516;2022-08-01T21:28:59;8.97;;;6.63;;
37877;SDS011;23715;53.652;8.516;2022-08-01T21:34:07;10.08;;;6.67;;
37877;SDS011;23715;53.652;8.516;2022-08-01T21:39:09;7.72;;;7.10;;
37877;SDS011;23715;53.652;8.516;2022-08-01T21:44:10;10.15;;;7.90;;
37877;SDS011;23715;53.652;8.516;2022-08-01T21:49:13;8.95;;;6.70;;
37877;SDS011;23715;53.652;8.516;2022-08-01T22:04:37;7.47;;;6.78;;
37877;SDS011;23715;53.652;8.516;2022-08-01T22:09:39;7.83;;;7.23;;
37877;SDS011;23715;53.652;8.516;2022-08-01T22:14:42;10.48;;;7.33;;
37877;SDS011;23715;53.652;8.516;2022-08-01T22:19:45;7.37;;;6.70;;
37877;SDS011;23715;53.652;8.516;2022-08-01T22:24:47;7.85;;;7.00;;
37877;SDS011;23715;53.652;8.516;2022-08-01T22:29:53;8.00;;;6.67;;
37877;SDS011;23715;53.652;8.516;2022-08-01T22:35:08;8.15;;;7.40;;
37877;SDS011;23715;53.652;8.516;2022-08-01T22:40:10;13.05;;;7.05;;
37877;SDS011;23715;53.652;8.516;2022-08-01T22:45:25;8.33;;;7.37;;
37877;SDS011;23715;53.652;8.516;2022-08-01T22:50:38;12.18;;;7.25;;
37877;SDS011;23715;53.652;8.516;2022-08-01T22:55:41;10.43;;;7.37;;
37877;SDS011;23715;53.652;8.516;2022-08-01T23:00:44;8.40;;;7.55;;
37877;SDS011;23715;53.652;8.516;2022-08-01T23:11:13;11.68;;;7.45;;
37877;SDS011;23715;53.652;8.516;2022-08-01T23:16:13;8.50;;;7.25;;
37877;SDS011;23715;53.652;8.516;2022-08-01T23:21:15;8.90;;;8.07;;
37877;SDS011;23715;53.652;8.516;2022-08-01T23:26:17;8.25;;;7.55;;
37877;SDS011;23715;53.652;8.516;2022-08-01T23:31:17;9.60;;;8.33;;
37877;SDS011;23715;53.652;8.516;2022-08-01T23:36:19;9.05;;;8.15;;
37877;SDS011;23715;53.652;8.516;2022-08-01T23:41:19;7.70;;;7.20;;
37877;SDS011;23715;53.652;8.516;2022-08-01T23:46:20;10.23;;;7.12;;
37877;SDS011;23715;53.652;8.516;2022-08-01T23:51:20;9.35;;;8.50;;
37877;SDS011;23715;53.652;8.516;2022-08-01T23:56:21;9.28;;;8.03;;
